Time;durP1;ratioP1;P1;durP2;ratioP2;P2;SDS_P1;SDS_P2;PMS_P1;PMS_P2;Temp;Humidity;BMP_temperature;BMP_pressure;BME280_temperature;BME280_humidity;BME280_pressure;Samples;Min_cycle;Max_cycle;Signal;HPM_P1;HPM_P2
2021/10/20 00:01:53;;;;;;;27.35;19.23;;;;;;;15.08;100.00;100844.69;4937372;28;20073;-72
2021/10/20 00:04:19;;;;;;;28.08;19.30;;;;;;;15.11;100.00;100838.25;4919438;28;20400;-72
2021/10/20 00:06:45;;;;;;;24.92;19.10;;;;;;;15.13;100.00;100836.25;4935601;28;20567;-72
2021/10/20 00:09:10;;;;;;;22.85;18.33;;;;;;;15.08;100.00;100839.41;4951419;28;20023;-75
2021/10/20 00:11:36;;;;;;;28.65;19.92;;;;;;;15.04;100.00;100832.84;4949953;28;20122;-71
2021/10/20 00:14:02;;;;;;;25.02;18.38;;;;;;;15.02;100.00;100829.56;4964491;28;20496;-72
2021/10/20 00:16:28;;;;;;;29.25;18.42;;;;;;;14.87;100.00;100832.09;4953328;28;20089;-73
2021/10/20 00:18:54;;;;;;;25.42;18.60;;;;;;;14.77;100.00;100836.78;4949877;28;20146;-72
2021/10/20 00:21:27;;;;;;;26.65;18.65;;;;;;;14.75;100.00;100828.22;4952509;28;20043;-72
2021/10/20 00:23:53;;;;;;;24.58;18.70;;;;;;;14.67;100.00;100810.56;4973481;28;20031;-72
2021/10/20 00:26:19;;;;;;;27.58;18.65;;;;;;;14.68;100.00;100809.56;4934693;28;20070;-72
2021/10/20 00:28:45;;;;;;;25.08;19.50;;;;;;;14.59;100.00;100811.41;4952967;28;20054;-72
2021/10/20 00:31:10;;;;;;;27.17;19.33;;;;;;;14.52;100.00;100810.44;4965322;28;20405;-73
2021/10/20 00:33:35;;;;;;;26.08;18.42;;;;;;;14.50;100.00;100803.66;4947013;28;20027;-73
2021/10/20 00:36:01;;;;;;;25.13;17.38;;;;;;;14.40;100.00;100799.41;4964937;28;20084;-72
2021/10/20 00:38:27;;;;;;;29.67;19.60;;;;;;;14.41;100.00;100798.44;4935973;28;20511;-73
2021/10/20 00:40:53;;;;;;;25.15;16.73;;;;;;;14.34;100.00;100799.28;4952305;28;20045;-73
2021/10/20 00:43:20;;;;;;;24.02;17.00;;;;;;;14.24;100.00;100794.22;4953252;28;20038;-73
2021/10/20 00:45:46;;;;;;;29.38;17.45;;;;;;;14.28;100.00;100784.97;4949721;28;20031;-72
2021/10/20 00:48:11;;;;;;;23.95;16.75;;;;;;;14.22;100.00;100780.34;4943586;28;20046;-72
2021/10/20 00:50:37;;;;;;;27.95;17.63;;;;;;;14.33;100.00;100776.53;4952031;28;20412;-74
2021/10/20 00:53:03;;;;;;;25.40;17.67;;;;;;;14.34;100.00;100775.53;4933733;28;20480;-74
2021/10/20 00:55:29;;;;;;;27.08;17.45;;;;;;;14.27;100.00;100775.38;4947338;28;20259;-74
2021/10/20 00:57:55;;;;;;;27.15;17.25;;;;;;;14.25;100.00;100766.00;4964877;28;20034;-73
2021/10/20 01:00:20;;;;;;;29.08;17.42;;;;;;;14.18;100.00;100764.06;4950398;28;20041;-72
2021/10/20 01:02:47;;;;;;;24.10;16.35;;;;;;;14.13;100.00;100755.81;4931214;28;20038;-71
2021/10/20 01:05:13;;;;;;;23.92;16.50;;;;;;;14.06;100.00;100756.66;4965325;28;20066;-73
2021/10/20 01:07:40;;;;;;;24.30;15.93;;;;;;;13.98;100.00;100757.50;4965556;28;20456;-73
2021/10/20 01:10:09;;;;;;;26.80;17.15;;;;;;;13.96;100.00;100747.13;4947387;28;20053;-73
2021/10/20 01:12:35;;;;;;;26.17;16.05;;;;;;;13.89;100.00;100742.69;4949118;28;20038;-72
2021/10/20 01:15:04;;;;;;;26.45;16.45;;;;;;;13.86;100.00;100732.47;4930875;28;20059;-73
2021/10/20 01:17:30;;;;;;;25.13;16.85;;;;;;;13.93;100.00;100730.81;4951881;28;20074;-73
2021/10/20 01:19:59;;;;;;;23.17;15.93;;;;;;;13.86;100.00;100727.19;4952274;28;20059;-72
2021/10/20 01:22:25;;;;;;;21.98;15.75;;;;;;;13.85;100.00;100718.47;4963630;28;20038;-74
2021/10/20 01:24:51;;;;;;;26.02;15.48;;;;;;;13.82;100.00;100726.72;4957680;28;20043;-72
2021/10/20 01:27:16;;;;;;;21.70;14.82;;;;;;;13.76;100.00;100716.84;4963170;28;20042;-71
2021/10/20 01:29:42;;;;;;;26.83;15.93;;;;;;;13.63;100.00;100714.72;4938018;29;20094;-72
2021/10/20 01:32:07;;;;;;;24.55;16.73;;;;;;;13.68;100.00;100706.31;4955796;28;20035;-72
2021/10/20 01:34:34;;;;;;;26.20;15.60;;;;;;;13.88;100.00;100710.25;4951348;28;20114;-73
2021/10/20 01:37:05;;;;;;;24.90;16.10;;;;;;;13.82;100.00;100702.97;4928270;29;20065;-72
2021/10/20 01:39:32;;;;;;;21.17;14.48;;;;;;;13.88;100.00;100691.78;4926325;28;20034;-71
2021/10/20 01:41:58;;;;;;;25.23;13.88;;;;;;;13.79;100.00;100714.69;4967167;28;20038;-72
2021/10/20 01:44:23;;;;;;;21.83;14.65;;;;;;;13.74;100.00;100700.38;4952633;28;20039;-74
2021/10/20 01:46:49;;;;;;;22.13;13.95;;;;;;;13.76;100.00;100693.94;4970155;28;20650;-74
2021/10/20 01:49:15;;;;;;;22.92;13.30;;;;;;;13.77;100.00;100700.06;4936827;28;20500;-72
2021/10/20 01:51:41;;;;;;;20.38;13.30;;;;;;;13.82;100.00;100685.38;4936067;28;20130;-71
2021/10/20 01:54:08;;;;;;;17.25;12.43;;;;;;;13.94;100.00;100677.09;4952931;28;20031;-72
2021/10/20 01:56:34;;;;;;;22.20;13.27;;;;;;;14.05;100.00;100686.44;4938980;28;20121;-72
2021/10/20 01:58:59;;;;;;;20.05;12.88;;;;;;;14.01;100.00;100688.59;4967757;28;20045;-73
2021/10/20 02:01:25;;;;;;;23.90;12.05;;;;;;;13.77;100.00;100692.97;4958608;28;20114;-72
2021/10/20 02:03:50;;;;;;;21.13;12.25;;;;;;;13.58;100.00;100682.75;4968414;28;20169;-72
2021/10/20 02:06:18;;;;;;;19.42;12.75;;;;;;;13.70;100.00;100668.25;4969316;28;20121;-71
2021/10/20 02:08:45;;;;;;;15.98;12.35;;;;;;;13.74;100.00;100660.84;4933180;29;20050;-71
2021/10/20 02:11:11;;;;;;;19.67;11.98;;;;;;;13.76;100.00;100662.31;4958705;28;20046;-73
2021/10/20 02:13:38;;;;;;;21.17;12.00;;;;;;;13.81;100.00;100665.25;4949320;28;20042;-72
2021/10/20 02:16:04;;;;;;;16.25;11.57;;;;;;;13.80;100.00;100662.78;4959301;28;20076;-72
2021/10/20 02:18:30;;;;;;;15.30;10.70;;;;;;;13.82;100.00;100656.38;4974164;28;20621;-73
2021/10/20 02:20:56;;;;;;;14.82;10.50;;;;;;;13.92;100.00;100657.97;4916962;29;20035;-72
2021/10/20 02:23:21;;;;;;;18.83;10.68;;;;;;;14.05;100.00;100637.13;4948943;28;20066;-71
2021/10/20 02:25:47;;;;;;;18.15;9.85;;;;;;;14.09;100.00;100641.09;4923435;28;20085;-72
2021/10/20 02:28:13;;;;;;;13.30;9.07;;;;;;;14.07;100.00;100651.00;4951808;28;20070;-72
2021/10/20 02:30:39;;;;;;;16.20;10.07;;;;;;;14.00;100.00;100631.59;4935995;28;20070;-74
2021/10/20 02:33:04;;;;;;;17.67;9.63;;;;;;;14.09;100.00;100642.91;4936787;29;20643;-72
2021/10/20 02:35:30;;;;;;;14.07;9.32;;;;;;;14.06;100.00;100625.63;4950330;29;20074;-72
2021/10/20 02:37:55;;;;;;;15.95;9.65;;;;;;;13.97;100.00;100630.09;4950693;28;20050;-72
2021/10/20 02:40:21;;;;;;;16.33;9.77;;;;;;;13.86;100.00;100621.75;4951578;28;20042;-74
2021/10/20 02:42:47;;;;;;;12.50;9.25;;;;;;;13.86;100.00;100612.00;4957552;28;20671;-72
2021/10/20 02:45:15;;;;;;;15.05;9.32;;;;;;;13.77;100.00;100619.16;4952150;28;20046;-72
2021/10/20 02:47:42;;;;;;;11.48;8.95;;;;;;;13.68;100.00;100617.53;4968623;28;20038;-72
2021/10/20 02:50:08;;;;;;;17.55;8.93;;;;;;;13.85;100.00;100614.84;4951609;28;20684;-73
2021/10/20 02:52:34;;;;;;;14.25;8.73;;;;;;;13.88;100.00;100623.22;4927510;28;20050;-74
2021/10/20 02:54:59;;;;;;;12.73;8.20;;;;;;;13.77;100.00;100613.06;4927696;28;20046;-73
2021/10/20 02:57:25;;;;;;;16.52;8.38;;;;;;;13.78;100.00;100604.97;4969419;28;20174;-74
2021/10/20 02:59:52;;;;;;;12.73;8.65;;;;;;;13.72;100.00;100605.66;4937885;29;20043;-74
2021/10/20 03:02:18;;;;;;;11.73;7.53;;;;;;;13.69;100.00;100599.91;4946762;28;20045;-73
2021/10/20 03:04:44;;;;;;;13.65;8.45;;;;;;;13.55;100.00;100594.34;4950400;28;20043;-73
2021/10/20 03:07:10;;;;;;;15.63;8.57;;;;;;;13.72;100.00;100589.03;4968631;28;20038;-73
2021/10/20 03:09:36;;;;;;;11.93;8.60;;;;;;;13.65;100.00;100591.50;4950821;28;20404;-73
2021/10/20 03:12:01;;;;;;;12.13;8.38;;;;;;;13.64;100.00;100597.78;4968462;28;20049;-71
2021/10/20 03:14:27;;;;;;;10.20;8.07;;;;;;;13.70;100.00;100596.28;4965726;28;20512;-72
2021/10/20 03:16:52;;;;;;;13.38;7.80;;;;;;;13.86;100.00;100596.19;4921025;28;20050;-72
2021/10/20 03:19:18;;;;;;;10.43;8.20;;;;;;;13.85;100.00;100593.75;4969185;28;20038;-72
2021/10/20 03:21:44;;;;;;;11.95;7.47;;;;;;;13.73;100.00;100586.22;4928229;28;20034;-73
2021/10/20 03:24:09;;;;;;;12.82;7.40;;;;;;;13.54;100.00;100586.59;4950763;28;20041;-71
2021/10/20 03:26:35;;;;;;;12.02;7.53;;;;;;;13.51;100.00;100579.06;4952967;28;20596;-71
2021/10/20 03:29:00;;;;;;;13.27;7.63;;;;;;;13.48;100.00;100582.00;4953584;28;20041;-73
2021/10/20 03:31:26;;;;;;;13.95;7.38;;;;;;;13.42;100.00;100586.97;4948806;28;20034;-73
2021/10/20 03:33:52;;;;;;;10.68;8.35;;;;;;;13.35;100.00;100577.28;4952742;29;20075;-72
2021/10/20 03:36:17;;;;;;;17.50;7.65;;;;;;;13.27;100.00;100574.63;4971005;28;20035;-72
2021/10/20 03:38:43;;;;;;;11.25;7.20;;;;;;;13.35;100.00;100570.19;4939818;28;20123;-73
2021/10/20 03:41:08;;;;;;;13.85;6.90;;;;;;;13.47;100.00;100575.09;4937777;28;20107;-72
2021/10/20 03:43:34;;;;;;;13.25;7.90;;;;;;;13.56;100.00;100566.16;4972756;28;20081;-70
2021/10/20 03:45:59;;;;;;;12.90;7.53;;;;;;;13.68;100.00;100554.28;4984768;28;20039;-73
2021/10/20 03:48:25;;;;;;;11.82;7.22;;;;;;;13.71;100.00;100550.47;4992406;28;20038;-72
2021/10/20 03:50:50;;;;;;;10.05;6.60;;;;;;;13.72;100.00;100552.94;4967430;28;20054;-72
2021/10/20 03:53:16;;;;;;;10.88;6.50;;;;;;;13.69;100.00;100549.81;4940579;28;20038;-74
2021/10/20 03:55:42;;;;;;;10.80;6.30;;;;;;;13.70;100.00;100540.94;4957688;28;20042;-74
2021/10/20 03:58:08;;;;;;;11.27;6.15;;;;;;;13.67;100.00;100530.72;4957283;28;20503;-74
2021/10/20 04:00:33;;;;;;;9.02;5.88;;;;;;;13.62;100.00;100532.06;4971743;28;20061;-75
2021/10/20 04:02:59;;;;;;;9.10;6.55;;;;;;;13.59;100.00;100513.13;4960843;28;20733;-72
2021/10/20 04:05:25;;;;;;;12.18;6.03;;;;;;;13.58;100.00;100516.75;4948572;28;20791;-71
2021/10/20 04:07:51;;;;;;;10.20;6.05;;;;;;;13.54;100.00;100516.28;4938487;28;20148;-74
2021/10/20 04:10:22;;;;;;;8.15;5.65;;;;;;;13.54;100.00;100512.81;4962138;28;20526;-72
2021/10/20 04:12:48;;;;;;;9.68;5.38;;;;;;;13.53;100.00;100506.72;4966951;28;20034;-73
2021/10/20 04:15:16;;;;;;;7.97;5.70;;;;;;;13.56;100.00;100508.19;4969554;28;20424;-74
2021/10/20 04:17:41;;;;;;;8.77;6.05;;;;;;;13.60;100.00;100510.34;4940156;28;20501;-72
2021/10/20 04:20:09;;;;;;;9.82;5.53;;;;;;;13.61;100.00;100504.06;4953866;28;20142;-73
2021/10/20 04:22:35;;;;;;;6.85;5.40;;;;;;;13.61;100.00;100497.97;4938214;28;20034;-74
2021/10/20 04:25:02;;;;;;;8.02;5.65;;;;;;;13.60;100.00;100494.53;4971231;28;20740;-73
2021/10/20 04:27:28;;;;;;;8.30;5.40;;;;;;;13.59;100.00;100502.59;4937826;29;20049;-72
2021/10/20 04:29:55;;;;;;;7.28;5.38;;;;;;;13.55;100.00;100494.22;4952162;29;20039;-73
2021/10/20 04:32:21;;;;;;;8.93;6.05;;;;;;;13.61;100.00;100490.06;4960601;28;20041;-73
2021/10/20 04:34:46;;;;;;;8.98;5.20;;;;;;;13.68;100.00;100482.31;4936682;28;20401;-72
2021/10/20 04:37:12;;;;;;;8.90;4.97;;;;;;;13.69;100.00;100491.84;4971327;28;20046;-73
2021/10/20 04:39:37;;;;;;;8.75;5.10;;;;;;;13.72;100.00;100484.41;4945036;28;20089;-72
2021/10/20 04:42:03;;;;;;;8.23;4.95;;;;;;;13.63;100.00;100488.06;4950104;28;20045;-73
2021/10/20 04:44:29;;;;;;;7.78;4.70;;;;;;;13.62;100.00;100478.53;4940325;28;20051;-73
2021/10/20 04:46:54;;;;;;;6.95;5.28;;;;;;;13.56;100.00;100481.84;4937100;28;20077;-74
2021/10/20 04:49:20;;;;;;;7.95;5.28;;;;;;;13.56;100.00;100476.56;4953142;28;20042;-73
2021/10/20 04:51:45;;;;;;;7.75;4.70;;;;;;;13.63;100.00;100472.25;4952713;28;20038;-72
2021/10/20 04:54:11;;;;;;;6.53;5.57;;;;;;;13.60;100.00;100465.53;4953433;28;20054;-73
2021/10/20 04:56:36;;;;;;;9.90;5.00;;;;;;;13.65;100.00;100469.47;4953772;28;20138;-72
2021/10/20 04:59:01;;;;;;;8.05;6.03;;;;;;;13.56;100.00;100466.88;4971121;28;20031;-72
2021/10/20 05:01:27;;;;;;;11.65;5.95;;;;;;;13.58;100.00;100471.94;4934895;28;20097;-73
2021/10/20 05:03:53;;;;;;;7.05;4.60;;;;;;;13.58;100.00;100469.31;4948698;28;20084;-72
2021/10/20 05:06:18;;;;;;;10.63;5.22;;;;;;;13.54;100.00;100463.59;4952872;28;20094;-72
2021/10/20 05:08:44;;;;;;;8.10;5.18;;;;;;;13.47;100.00;100441.56;4937485;28;20031;-74
2021/10/20 05:11:09;;;;;;;6.93;4.72;;;;;;;13.48;100.00;100440.56;4916519;28;20042;-72
2021/10/20 05:13:34;;;;;;;9.63;4.90;;;;;;;13.51;100.00;100442.84;4953187;28;20027;-73
2021/10/20 05:16:00;;;;;;;7.53;5.13;;;;;;;13.52;100.00;100441.84;4951097;28;20790;-73
2021/10/20 05:18:26;;;;;;;9.23;5.22;;;;;;;13.55;100.00;100435.41;4938165;28;20125;-72
2021/10/20 05:20:51;;;;;;;6.90;4.63;;;;;;;13.56;100.00;100427.34;4946875;28;20692;-72
2021/10/20 05:23:17;;;;;;;6.90;5.07;;;;;;;13.56;100.00;100429.13;4970287;28;20038;-71
2021/10/20 05:25:43;;;;;;;6.40;4.53;;;;;;;13.46;100.00;100436.47;4953118;28;20374;-73
2021/10/20 05:28:09;;;;;;;8.20;4.78;;;;;;;13.37;100.00;100425.97;4970283;28;20776;-73
2021/10/20 05:30:35;;;;;;;11.10;5.35;;;;;;;13.38;100.00;100424.97;4943374;28;20035;-72
2021/10/20 05:33:00;;;;;;;9.60;4.88;;;;;;;13.37;100.00;100418.06;4937008;28;20086;-72
2021/10/20 05:35:26;;;;;;;6.55;4.97;;;;;;;13.43;100.00;100411.28;4952622;28;20031;-72
2021/10/20 05:37:53;;;;;;;8.18;5.10;;;;;;;13.43;100.00;100409.47;4953139;28;20038;-72
2021/10/20 05:40:21;;;;;;;6.38;4.97;;;;;;;13.33;100.00;100410.66;4925379;28;20062;-72
2021/10/20 05:42:47;;;;;;;10.77;5.22;;;;;;;13.41;100.00;100402.72;4950572;28;20081;-72
2021/10/20 05:45:13;;;;;;;8.43;5.10;;;;;;;13.40;100.00;100398.44;4970128;28;20042;-73
2021/10/20 05:47:39;;;;;;;8.82;5.13;;;;;;;13.48;100.00;100387.84;4955083;28;20058;-72
2021/10/20 05:50:05;;;;;;;9.52;5.22;;;;;;;13.49;100.00;100386.88;4952268;28;20771;-74
2021/10/20 05:52:31;;;;;;;9.18;5.05;;;;;;;13.40;100.00;100386.09;4951922;28;20097;-73
2021/10/20 05:54:58;;;;;;;8.55;5.00;;;;;;;13.42;100.00;100380.66;4970098;28;20444;-73
2021/10/20 05:57:23;;;;;;;10.23;5.57;;;;;;;13.44;100.00;100379.47;4966235;28;20819;-72
2021/10/20 05:59:48;;;;;;;6.88;5.05;;;;;;;13.52;100.00;100380.44;4939327;28;20304;-73
2021/10/20 06:02:14;;;;;;;8.48;5.47;;;;;;;13.47;100.00;100373.06;4943089;29;20126;-72
2021/10/20 06:04:40;;;;;;;11.95;5.43;;;;;;;13.53;100.00;100379.44;4936123;28;20046;-73
2021/10/20 06:07:06;;;;;;;7.85;5.00;;;;;;;13.51;100.00;100381.44;4960442;28;20039;-73
2021/10/20 06:09:35;;;;;;;8.98;5.40;;;;;;;13.50;100.00;100379.78;4950702;28;20046;-73
2021/10/20 06:12:02;;;;;;;18.35;5.93;;;;;;;13.51;100.00;100381.44;4951924;28;20038;-72
2021/10/20 06:14:28;;;;;;;10.30;5.82;;;;;;;13.49;100.00;100372.88;4951687;28;20034;-73
2021/10/20 06:16:54;;;;;;;11.80;5.95;;;;;;;13.55;100.00;100370.38;4917706;28;20054;-73
2021/10/20 06:19:19;;;;;;;9.55;5.85;;;;;;;13.58;100.00;100361.28;4938084;28;20066;-74
2021/10/20 06:21:46;;;;;;;11.85;5.78;;;;;;;13.56;100.00;100363.25;4919745;28;20054;-72
2021/10/20 06:24:12;;;;;;;10.82;6.20;;;;;;;13.55;100.00;100359.81;4969500;28;20571;-73
2021/10/20 06:26:38;;;;;;;10.20;5.93;;;;;;;13.72;100.00;100362.34;4923512;28;20050;-74
2021/10/20 06:29:05;;;;;;;8.50;6.00;;;;;;;13.66;100.00;100358.59;4962058;28;20027;-73
2021/10/20 06:31:30;;;;;;;10.70;6.40;;;;;;;13.75;100.00;100361.97;4954360;28;20184;-74
2021/10/20 06:33:56;;;;;;;11.52;5.70;;;;;;;13.74;99.37;100353.25;4952126;28;20512;-73
2021/10/20 06:36:26;;;;;;;8.35;5.72;;;;;;;13.81;99.13;100361.28;4921987;29;20054;-73
2021/10/20 06:38:52;;;;;;;9.52;6.03;;;;;;;13.89;98.06;100352.50;4953272;28;20038;-72
2021/10/20 06:41:18;;;;;;;10.38;5.47;;;;;;;14.04;97.16;100345.44;4936520;28;20100;-72
2021/10/20 06:43:43;;;;;;;9.50;5.82;;;;;;;13.97;97.67;100350.59;4966778;28;20030;-73
2021/10/20 06:46:09;;;;;;;8.57;5.45;;;;;;;13.93;98.20;100341.41;4925688;28;20037;-72
2021/10/20 06:48:36;;;;;;;8.32;5.32;;;;;;;13.92;97.24;100337.16;4935170;28;20042;-74
2021/10/20 06:51:02;;;;;;;5.93;5.10;;;;;;;13.96;97.77;100324.44;4962722;28;20039;-72
2021/10/20 06:53:27;;;;;;;6.40;4.95;;;;;;;13.92;97.85;100323.13;4931938;28;20173;-73
2021/10/20 06:55:53;;;;;;;9.30;4.88;;;;;;;13.92;97.97;100318.69;4966933;28;20038;-72
2021/10/20 06:58:18;;;;;;;9.38;4.90;;;;;;;13.96;97.43;100314.69;4935179;28;20058;-73
2021/10/20 07:00:43;;;;;;;7.18;4.80;;;;;;;13.91;98.50;100332.03;4965552;28;20073;-73
2021/10/20 07:03:09;;;;;;;6.65;5.20;;;;;;;13.84;97.72;100326.66;4967185;28;20093;-74
2021/10/20 07:05:34;;;;;;;8.25;4.75;;;;;;;13.88;97.58;100324.47;4946103;28;20497;-74
2021/10/20 07:08:00;;;;;;;6.75;4.25;;;;;;;13.90;97.36;100314.56;4936630;28;20108;-71
2021/10/20 07:10:25;;;;;;;9.82;4.80;;;;;;;13.92;97.71;100310.78;4951385;28;20049;-72
2021/10/20 07:12:51;;;;;;;7.32;4.72;;;;;;;13.90;97.55;100306.66;4968962;28;20114;-72
2021/10/20 07:15:16;;;;;;;7.55;4.75;;;;;;;13.92;96.83;100305.50;4968829;28;20038;-72
2021/10/20 07:17:43;;;;;;;7.35;4.88;;;;;;;13.87;97.60;100309.69;4933469;28;20058;-73
2021/10/20 07:20:09;;;;;;;6.35;4.45;;;;;;;13.96;96.88;100301.50;4968154;28;20038;-72
2021/10/20 07:22:38;;;;;;;6.88;5.50;;;;;;;13.93;96.40;100290.50;4951351;28;20034;-73
2021/10/20 07:25:06;;;;;;;8.23;5.13;;;;;;;14.03;95.91;100272.59;4950417;28;20038;-74
2021/10/20 07:27:34;;;;;;;9.60;5.30;;;;;;;13.96;97.81;100279.59;4945802;28;20117;-73
2021/10/20 07:30:01;;;;;;;6.97;5.20;;;;;;;13.96;96.43;100292.78;4951040;28;20708;-73
2021/10/20 07:32:26;;;;;;;10.48;5.82;;;;;;;13.93;97.26;100283.41;4965473;28;20042;-73
2021/10/20 07:34:52;;;;;;;12.15;5.72;;;;;;;13.92;96.49;100265.97;4936789;28;20034;-73
2021/10/20 07:37:17;;;;;;;10.88;6.00;;;;;;;13.94;97.67;100274.50;4951890;28;20069;-74
2021/10/20 07:39:43;;;;;;;8.00;6.55;;;;;;;13.94;96.78;100277.13;4951002;28;20042;-74
2021/10/20 07:42:09;;;;;;;10.35;5.93;;;;;;;13.90;97.36;100254.78;4916123;29;20039;-73
2021/10/20 07:44:34;;;;;;;8.40;6.20;;;;;;;13.90;97.82;100261.84;4955929;28;20088;-72
2021/10/20 07:47:00;;;;;;;11.30;6.75;;;;;;;13.91;97.76;100272.22;4953908;28;20050;-72
2021/10/20 07:49:25;;;;;;;11.30;6.70;;;;;;;13.86;99.12;100263.22;4951089;28;20039;-72
2021/10/20 07:51:56;;;;;;;15.73;6.80;;;;;;;13.96;96.13;100248.78;4967664;28;20492;-72
2021/10/20 07:54:23;;;;;;;11.85;7.60;;;;;;;14.02;96.55;100253.31;4951102;28;20066;-73
2021/10/20 07:56:48;;;;;;;10.63;7.85;;;;;;;14.05;96.87;100248.69;4974272;28;20505;-73
2021/10/20 07:59:14;;;;;;;12.43;7.53;;;;;;;14.10;96.48;100235.78;4936126;29;20062;-73
2021/10/20 08:01:39;;;;;;;11.38;7.78;;;;;;;14.11;94.86;100240.03;4938430;28;20793;-74
2021/10/20 08:04:05;;;;;;;14.90;7.95;;;;;;;14.25;95.05;100238.41;4932364;29;20485;-74
2021/10/20 08:06:31;;;;;;;11.00;7.63;;;;;;;14.33;94.11;100238.31;4949840;28;20030;-72
2021/10/20 08:08:56;;;;;;;12.07;7.32;;;;;;;14.35;93.59;100229.22;4970549;28;20745;-72
2021/10/20 08:11:21;;;;;;;13.40;8.45;;;;;;;14.44;93.73;100210.66;4987719;28;20678;-73
2021/10/20 08:13:47;;;;;;;13.20;8.15;;;;;;;14.52;92.46;100200.81;4953456;28;20065;-72
2021/10/20 08:16:12;;;;;;;10.82;7.75;;;;;;;14.47;93.00;100184.72;4970218;28;20038;-72
2021/10/20 08:18:38;;;;;;;13.88;8.15;;;;;;;14.47;93.35;100202.38;4973096;28;20022;-74
2021/10/20 08:21:03;;;;;;;11.40;8.40;;;;;;;14.53;93.33;100194.50;4939086;28;20046;-73
2021/10/20 08:23:29;;;;;;;15.00;8.35;;;;;;;14.66;92.17;100187.78;4971899;28;20100;-73
2021/10/20 08:25:55;;;;;;;15.40;8.35;;;;;;;14.70;93.09;100179.28;4953346;28;20039;-73
2021/10/20 08:28:20;;;;;;;13.35;8.25;;;;;;;14.77;93.86;100193.41;4978513;28;20039;-72
2021/10/20 08:30:46;;;;;;;12.68;8.27;;;;;;;14.81;94.59;100187.75;4953810;28;20034;-74
2021/10/20 08:33:13;;;;;;;13.48;8.02;;;;;;;14.85;92.18;100181.88;4971872;28;20038;-74
2021/10/20 08:35:38;;;;;;;11.63;8.20;;;;;;;14.90;91.30;100192.72;4937900;28;20571;-72
2021/10/20 08:38:05;;;;;;;11.32;8.18;;;;;;;14.98;94.53;100192.56;4971306;28;20130;-73
2021/10/20 08:40:33;;;;;;;13.27;8.75;;;;;;;15.07;91.05;100189.81;4920803;28;20066;-72
2021/10/20 08:43:00;;;;;;;15.52;7.97;;;;;;;15.11;92.18;100191.09;4938025;28;20101;-73
2021/10/20 08:45:26;;;;;;;12.70;8.40;;;;;;;15.18;90.15;100184.84;4925442;28;20039;-72
2021/10/20 08:47:52;;;;;;;15.02;7.82;;;;;;;15.23;90.01;100178.97;4978885;28;20038;-74
2021/10/20 08:50:22;;;;;;;10.60;7.68;;;;;;;15.33;90.44;100176.84;4972144;28;20433;-73
2021/10/20 08:52:49;;;;;;;9.68;7.75;;;;;;;15.37;88.67;100161.41;4953316;28;20027;-74
2021/10/20 08:55:16;;;;;;;11.65;7.90;;;;;;;15.46;88.20;100149.66;4952893;28;20493;-74
2021/10/20 08:57:43;;;;;;;12.48;8.65;;;;;;;15.50;90.09;100137.72;4963363;28;20907;-71
2021/10/20 09:00:10;;;;;;;15.20;8.25;;;;;;;15.58;88.18;100142.03;4967085;28;20042;-72
2021/10/20 09:02:39;;;;;;;13.68;8.35;;;;;;;15.65;89.29;100142.91;4937805;28;20026;-72
2021/10/20 09:05:06;;;;;;;13.68;8.32;;;;;;;15.67;88.70;100132.94;4936409;28;20440;-73
2021/10/20 09:07:32;;;;;;;12.65;8.15;;;;;;;15.59;88.45;100125.16;4904106;29;20102;-72
2021/10/20 09:09:57;;;;;;;10.98;7.97;;;;;;;15.48;89.14;100123.91;4936904;28;20559;-73
2021/10/20 09:12:30;;;;;;;13.88;7.50;;;;;;;15.48;88.61;100112.47;4938839;28;20157;-72
2021/10/20 09:14:57;;;;;;;14.52;9.13;;;;;;;15.45;88.82;100112.88;4959017;28;20038;-73
2021/10/20 09:17:23;;;;;;;11.75;7.55;;;;;;;15.43;90.33;100107.78;4967348;28;20472;-71
2021/10/20 09:19:49;;;;;;;9.77;8.05;;;;;;;15.44;90.86;100100.69;4952021;28;20031;-74
2021/10/20 09:22:15;;;;;;;12.68;7.78;;;;;;;15.46;90.72;100088.09;4959203;28;20042;-72
2021/10/20 09:24:43;;;;;;;12.77;7.85;;;;;;;15.48;90.15;100065.75;4935915;28;20073;-72
2021/10/20 09:27:27;;;;;;;13.82;8.32;;;;;;;15.47;90.60;100076.50;4948149;28;20045;-73
2021/10/20 09:30:09;;;;;;;20.55;8.32;;;;;;;15.45;90.85;100074.06;4954200;28;20038;-71
2021/10/20 09:32:35;;;;;;;12.88;7.90;;;;;;;15.43;89.63;100076.09;4952633;28;20038;-73
2021/10/20 09:35:01;;;;;;;12.15;7.53;;;;;;;15.38;90.88;100075.84;4969120;28;20042;-73
2021/10/20 09:37:27;;;;;;;12.25;7.80;;;;;;;15.41;90.77;100080.75;4950409;28;20043;-73
2021/10/20 09:40:09;;;;;;;11.43;7.57;;;;;;;15.45;91.17;100104.97;4950681;28;20520;-72
2021/10/20 09:42:45;;;;;;;9.52;7.90;;;;;;;15.44;90.54;100096.19;4936293;28;20441;-73
2021/10/20 09:45:14;;;;;;;13.65;8.95;;;;;;;15.49;91.23;100093.00;4955186;28;20043;-73
2021/10/20 09:47:40;;;;;;;14.25;8.10;;;;;;;15.49;90.92;100085.06;4947327;28;20134;-75
2021/10/20 09:50:07;;;;;;;10.27;7.28;;;;;;;15.58;91.21;100071.47;4951251;28;20085;-71
2021/10/20 09:52:50;;;;;;;13.68;7.75;;;;;;;15.59;91.03;100072.28;4945221;28;20114;-73
2021/10/20 09:55:27;;;;;;;12.02;8.18;;;;;;;15.74;91.29;100080.13;4969263;28;20039;-73
2021/10/20 09:58:13;;;;;;;12.27;7.85;;;;;;;15.99;90.70;100061.09;4967938;28;20035;-74
2021/10/20 10:00:39;;;;;;;9.65;7.60;;;;;;;16.22;89.70;100043.06;4966376;28;20432;-73
2021/10/20 10:03:05;;;;;;;9.30;6.93;;;;;;;16.38;88.89;100049.00;4956038;28;20105;-74
2021/10/20 10:05:32;;;;;;;14.27;7.32;;;;;;;16.51;88.19;100051.66;4934739;28;20039;-73
2021/10/20 10:07:57;;;;;;;13.35;7.25;;;;;;;16.75;85.11;100031.72;4932647;28;20053;-76
2021/10/20 10:10:23;;;;;;;9.75;6.25;;;;;;;16.89;84.85;100021.94;4949352;28;20137;-73
2021/10/20 10:12:57;;;;;;;15.30;7.28;;;;;;;17.09;84.25;100017.44;4932608;28;20066;-74
2021/10/20 10:15:24;;;;;;;10.10;6.85;;;;;;;17.35;82.80;100015.75;4972474;28;20054;-74
2021/10/20 10:17:53;;;;;;;9.85;6.68;;;;;;;17.52;81.96;100002.84;4937557;28;20042;-73
2021/10/20 10:20:19;;;;;;;11.80;7.15;;;;;;;17.44;81.95;100003.06;4966620;28;20039;-72
2021/10/20 10:22:57;;;;;;;12.57;6.80;;;;;;;17.12;81.46;99984.41;4932780;28;20049;-74
2021/10/20 10:25:38;;;;;;;9.60;6.55;;;;;;;16.95;85.41;99981.38;4968650;28;20590;-75
2021/10/20 10:28:23;;;;;;;10.48;6.60;;;;;;;16.83;83.15;99977.75;4934770;28;20571;-74
2021/10/20 10:30:52;;;;;;;12.48;6.97;;;;;;;16.70;86.68;99979.34;4934451;28;20049;-72
2021/10/20 10:33:29;;;;;;;10.25;6.45;;;;;;;16.60;84.58;99984.25;4944021;28;20035;-74
2021/10/20 10:36:19;;;;;;;13.98;6.57;;;;;;;16.59;84.46;99979.97;4937496;28;20138;-72
2021/10/20 10:38:48;;;;;;;8.75;6.05;;;;;;;16.54;85.59;99977.94;4928199;28;20030;-74
2021/10/20 10:41:33;;;;;;;8.00;6.07;;;;;;;16.50;86.75;99976.72;4937600;28;20038;-74
2021/10/20 10:44:07;;;;;;;11.48;6.30;;;;;;;16.42;87.93;99982.19;4936815;28;20065;-72
2021/10/20 10:46:33;;;;;;;10.38;6.60;;;;;;;16.37;90.56;100003.19;4958363;28;20043;-72
2021/10/20 10:49:00;;;;;;;17.20;6.90;;;;;;;16.27;88.91;100006.22;4967108;28;20038;-73
2021/10/20 10:51:26;;;;;;;12.02;6.57;;;;;;;16.13;91.92;100002.75;4951166;28;20385;-73
2021/10/20 10:53:54;;;;;;;13.57;6.13;;;;;;;15.99;93.06;99994.97;4935129;28;20045;-71
2021/10/20 10:56:20;;;;;;;8.65;6.00;;;;;;;15.83;94.73;99982.94;4943189;28;20042;-70
2021/10/20 10:59:04;;;;;;;14.35;6.40;;;;;;;15.69;96.03;99976.75;4944105;28;20034;-71
2021/10/20 11:01:48;;;;;;;8.98;6.28;;;;;;;15.56;95.26;99967.78;4919757;28;20105;-74
2021/10/20 11:04:19;;;;;;;10.75;6.47;;;;;;;15.48;99.39;99975.06;4946563;28;20153;-74
2021/10/20 11:06:47;;;;;;;10.93;6.63;;;;;;;15.48;99.41;99972.41;4917528;29;20067;-75
2021/10/20 11:09:17;;;;;;;11.55;6.55;;;;;;;15.38;99.08;99970.16;4959743;28;20073;-73
2021/10/20 11:11:47;;;;;;;10.23;6.85;;;;;;;15.33;98.96;99962.81;4928235;29;20819;-72
2021/10/20 11:14:15;;;;;;;10.98;6.38;;;;;;;15.46;96.57;99953.31;4942712;28;20042;-72